Time;durP1;ratioP1;P1;durP2;ratioP2;P2;SDS_P1;SDS_P2;PMS_P1;PMS_P2;Temp;Humidity;BMP_temperature;BMP_pressure;BME280_temperature;BME280_humidity;BME280_pressure;Samples;Min_cycle;Max_cycle;Signal;HPM_P1;HPM_P2
2023/12/14 00:01:43;;;;;;;40.80;18.00;;;;;;;;;;771293;180;919535;-62
2023/12/14 00:04:09;;;;;;;42.70;19.63;;;;;;;;;;770031;180;918097;-69
2023/12/14 00:06:35;;;;;;;33.73;20.27;;;;;;;;;;760879;181;914118;-71
2023/12/14 00:09:00;;;;;;;39.20;17.42;;;;;;;;;;772924;178;915430;-69
2023/12/14 00:11:26;;;;;;;48.57;20.23;;;;;;;;;;780212;180;917529;-63
2023/12/14 00:13:52;;;;;;;46.20;18.83;;;;;;;;;;769493;178;918127;-69
2023/12/14 00:16:18;;;;;;;47.77;20.37;;;;;;;;;;773225;180;920113;-62
2023/12/14 00:18:44;;;;;;;54.40;20.10;;;;;;;;;;778142;178;917679;-62
2023/12/14 00:21:10;;;;;;;52.50;19.53;;;;;;;;;;772519;180;919718;-63
2023/12/14 00:23:35;;;;;;;46.50;18.40;;;;;;;;;;771252;180;815793;-69
2023/12/14 00:26:01;;;;;;;49.03;19.45;;;;;;;;;;776709;178;815719;-69
2023/12/14 00:28:27;;;;;;;52.03;20.87;;;;;;;;;;774549;178;919033;-62
2023/12/14 00:30:53;;;;;;;34.73;18.07;;;;;;;;;;767569;180;919756;-70
2023/12/14 00:33:19;;;;;;;49.97;19.23;;;;;;;;;;768194;180;919156;-70
2023/12/14 00:35:45;;;;;;;58.77;20.20;;;;;;;;;;774159;181;819222;-69
2023/12/14 00:38:11;;;;;;;52.10;19.77;;;;;;;;;;770257;180;918028;-62
2023/12/14 00:40:36;;;;;;;66.33;19.83;;;;;;;;;;770278;180;944221;-70
2023/12/14 00:43:02;;;;;;;70.57;19.50;;;;;;;;;;781957;180;817363;-69
2023/12/14 00:45:28;;;;;;;44.07;21.37;;;;;;;;;;776229;181;918914;-63
2023/12/14 00:47:54;;;;;;;72.43;19.90;;;;;;;;;;771285;180;920767;-62
2023/12/14 00:50:20;;;;;;;52.17;18.97;;;;;;;;;;768725;181;752525;-70
2023/12/14 00:52:46;;;;;;;40.87;16.80;;;;;;;;;;767908;181;912068;-70
2023/12/14 00:55:11;;;;;;;42.27;19.67;;;;;;;;;;772514;180;937583;-62
2023/12/14 00:57:37;;;;;;;35.67;18.33;;;;;;;;;;773712;180;918320;-62
2023/12/14 01:00:03;;;;;;;46.63;19.60;;;;;;;;;;776988;178;883597;-70
2023/12/14 01:02:29;;;;;;;48.03;18.37;;;;;;;;;;771665;181;921085;-70
2023/12/14 01:04:55;;;;;;;50.13;19.97;;;;;;;;;;772491;181;916966;-62
2023/12/14 01:07:21;;;;;;;65.83;18.70;;;;;;;;;;778748;180;894154;-70
2023/12/14 01:09:47;;;;;;;58.93;19.13;;;;;;;;;;770641;180;914961;-62
2023/12/14 01:12:13;;;;;;;81.77;20.93;;;;;;;;;;772618;178;921851;-62
2023/12/14 01:14:38;;;;;;;78.43;20.60;;;;;;;;;;776672;180;918316;-62
2023/12/14 01:17:04;;;;;;;88.87;21.57;;;;;;;;;;775321;177;919201;-70
2023/12/14 01:19:30;;;;;;;55.53;18.97;;;;;;;;;;772674;177;919533;-69
2023/12/14 01:21:56;;;;;;;78.07;19.83;;;;;;;;;;776166;180;926019;-70
2023/12/14 01:24:22;;;;;;;74.97;19.10;;;;;;;;;;771919;181;1019682;-62
2023/12/14 01:26:48;;;;;;;50.80;18.50;;;;;;;;;;771327;181;920695;-70
2023/12/14 01:29:13;;;;;;;49.00;18.53;;;;;;;;;;770428;180;918637;-62
2023/12/14 01:31:39;;;;;;;52.27;18.53;;;;;;;;;;777797;180;816072;-63
2023/12/14 01:34:05;;;;;;;57.97;20.90;;;;;;;;;;770563;180;844717;-70
2023/12/14 01:36:31;;;;;;;72.73;19.00;;;;;;;;;;770707;180;816929;-70
2023/12/14 01:38:57;;;;;;;70.63;19.83;;;;;;;;;;778902;181;816747;-62
2023/12/14 01:41:23;;;;;;;60.77;18.63;;;;;;;;;;768997;180;917254;-69
2023/12/14 01:43:48;;;;;;;66.77;19.60;;;;;;;;;;775927;180;822995;-70
2023/12/14 01:46:16;;;;;;;67.20;20.60;;;;;;;;;;773811;180;821293;-62
2023/12/14 01:48:40;;;;;;;74.90;19.00;;;;;;;;;;772367;181;845748;-70
2023/12/14 01:51:06;;;;;;;70.73;19.90;;;;;;;;;;769955;179;873721;-62
2023/12/14 01:53:32;;;;;;;106.20;21.13;;;;;;;;;;763893;180;932330;-62
2023/12/14 01:55:58;;;;;;;98.30;20.50;;;;;;;;;;774385;177;904369;-70
2023/12/14 01:58:25;;;;;;;54.90;18.40;;;;;;;;;;771944;179;918734;-62
2023/12/14 02:00:49;;;;;;;75.43;22.17;;;;;;;;;;776902;180;916331;-62
2023/12/14 02:03:15;;;;;;;63.50;18.80;;;;;;;;;;776240;180;921571;-62
2023/12/14 02:05:41;;;;;;;56.65;19.27;;;;;;;;;;768272;180;918932;-70
2023/12/14 02:08:07;;;;;;;48.53;17.87;;;;;;;;;;773623;181;919327;-62
2023/12/14 02:10:33;;;;;;;56.00;16.80;;;;;;;;;;778079;180;915736;-62
2023/12/14 02:12:59;;;;;;;66.63;19.50;;;;;;;;;;769334;180;917487;-70
2023/12/14 02:15:24;;;;;;;72.80;18.93;;;;;;;;;;772193;181;925054;-69
2023/12/14 02:17:50;;;;;;;66.15;18.65;;;;;;;;;;780481;180;918925;-70
2023/12/14 02:20:16;;;;;;;44.67;17.30;;;;;;;;;;768768;177;915272;-69
2023/12/14 02:22:49;;;;;;;102.27;20.70;;;;;;;;;;769047;180;914038;-70
2023/12/14 02:25:14;;;;;;;92.87;20.73;;;;;;;;;;770787;180;921816;-70
2023/12/14 02:27:39;;;;;;;91.23;21.17;;;;;;;;;;780870;180;815677;-62
2023/12/14 02:30:06;;;;;;;51.53;19.00;;;;;;;;;;772677;180;928142;-70
2023/12/14 02:32:32;;;;;;;74.37;19.83;;;;;;;;;;774701;178;841406;-70
2023/12/14 02:34:57;;;;;;;55.27;17.47;;;;;;;;;;771159;180;919363;-62
2023/12/14 02:37:23;;;;;;;95.23;21.17;;;;;;;;;;770506;178;927508;-71
2023/12/14 02:39:49;;;;;;;87.87;18.90;;;;;;;;;;770360;180;919770;-62
2023/12/14 02:42:15;;;;;;;63.95;19.17;;;;;;;;;;772987;180;935160;-62
2023/12/14 02:44:41;;;;;;;51.77;17.40;;;;;;;;;;778778;180;920462;-70
2023/12/14 02:47:07;;;;;;;84.53;19.53;;;;;;;;;;772335;180;919674;-62
2023/12/14 02:49:33;;;;;;;68.67;16.50;;;;;;;;;;762182;184;921185;-69
2023/12/14 02:51:58;;;;;;;48.67;16.77;;;;;;;;;;773880;181;916878;-62
2023/12/14 02:54:24;;;;;;;52.63;17.50;;;;;;;;;;773630;180;918035;-62
2023/12/14 02:56:50;;;;;;;38.13;16.97;;;;;;;;;;772181;180;919228;-63
2023/12/14 02:59:16;;;;;;;43.93;19.67;;;;;;;;;;777008;180;920192;-71
2023/12/14 03:01:42;;;;;;;35.10;17.60;;;;;;;;;;769338;180;916313;-70
2023/12/14 03:04:08;;;;;;;37.28;19.40;;;;;;;;;;776178;180;928419;-68
2023/12/14 03:06:33;;;;;;;41.70;20.20;;;;;;;;;;775552;180;918961;-68
2023/12/14 03:08:59;;;;;;;37.83;18.60;;;;;;;;;;771482;178;917450;-70
2023/12/14 03:11:25;;;;;;;41.13;18.33;;;;;;;;;;770105;180;917900;-70
2023/12/14 03:13:51;;;;;;;40.63;18.37;;;;;;;;;;775272;178;918121;-62
2023/12/14 03:16:17;;;;;;;40.40;18.00;;;;;;;;;;768912;179;919194;-62
2023/12/14 03:18:43;;;;;;;45.33;21.70;;;;;;;;;;773734;180;922926;-69
2023/12/14 03:21:08;;;;;;;46.33;18.90;;;;;;;;;;771271;180;907125;-63
2023/12/14 03:23:34;;;;;;;37.30;19.77;;;;;;;;;;780759;180;921626;-62
2023/12/14 03:26:01;;;;;;;34.23;16.83;;;;;;;;;;763255;178;816585;-62
2023/12/14 03:28:26;;;;;;;32.77;17.40;;;;;;;;;;763285;181;911349;-62
2023/12/14 03:30:52;;;;;;;42.60;19.87;;;;;;;;;;778757;180;848356;-62
2023/12/14 03:33:18;;;;;;;44.70;19.47;;;;;;;;;;772142;180;871114;-61
2023/12/14 03:35:44;;;;;;;32.03;17.47;;;;;;;;;;771735;178;919192;-70
2023/12/14 03:38:09;;;;;;;33.87;17.83;;;;;;;;;;773031;181;920251;-70
2023/12/14 03:40:35;;;;;;;51.03;17.87;;;;;;;;;;779698;180;817659;-62
2023/12/14 03:43:03;;;;;;;96.13;20.77;;;;;;;;;;771403;180;916791;-70
2023/12/14 03:45:27;;;;;;;86.57;20.20;;;;;;;;;;767382;179;919254;-70
2023/12/14 03:47:53;;;;;;;44.27;18.27;;;;;;;;;;776595;180;920346;-70
2023/12/14 03:50:19;;;;;;;43.87;20.30;;;;;;;;;;759963;180;987032;-62
2023/12/14 03:52:44;;;;;;;48.70;17.93;;;;;;;;;;771622;180;914232;-70
2023/12/14 03:55:10;;;;;;;63.03;18.47;;;;;;;;;;775939;179;920539;-62
2023/12/14 03:57:36;;;;;;;81.13;19.20;;;;;;;;;;773833;180;917684;-70
2023/12/14 04:00:02;;;;;;;62.35;19.30;;;;;;;;;;774553;180;816531;-70
2023/12/14 04:02:28;;;;;;;43.85;17.17;;;;;;;;;;778864;178;842803;-67
2023/12/14 04:04:54;;;;;;;68.67;18.97;;;;;;;;;;770865;179;919398;-62
2023/12/14 04:07:19;;;;;;;60.05;18.42;;;;;;;;;;771205;180;817430;-62
2023/12/14 04:09:45;;;;;;;49.00;18.27;;;;;;;;;;773045;180;815310;-62
2023/12/14 04:12:11;;;;;;;50.63;19.63;;;;;;;;;;776663;180;918473;-62
2023/12/14 04:14:37;;;;;;;67.63;20.17;;;;;;;;;;774978;179;920188;-61
2023/12/14 04:17:03;;;;;;;72.47;21.40;;;;;;;;;;775324;180;817785;-70
2023/12/14 04:19:29;;;;;;;82.30;21.80;;;;;;;;;;777832;181;918960;-62
2023/12/14 04:21:55;;;;;;;45.33;18.10;;;;;;;;;;773238;180;916329;-69
2023/12/14 04:24:22;;;;;;;82.60;18.45;;;;;;;;;;774163;180;1021931;-62
2023/12/14 04:26:46;;;;;;;109.03;22.40;;;;;;;;;;768790;181;812191;-71
2023/12/14 04:29:12;;;;;;;120.40;22.60;;;;;;;;;;773597;181;819136;-62
2023/12/14 04:31:38;;;;;;;83.57;19.33;;;;;;;;;;772823;180;919182;-62
2023/12/14 04:34:04;;;;;;;51.00;17.67;;;;;;;;;;772873;180;922838;-62
2023/12/14 04:36:30;;;;;;;79.70;21.70;;;;;;;;;;770172;181;916174;-62
2023/12/14 04:38:55;;;;;;;66.83;16.67;;;;;;;;;;769938;180;919440;-70
2023/12/14 04:41:21;;;;;;;82.25;20.23;;;;;;;;;;767439;178;853118;-69
2023/12/14 04:43:47;;;;;;;95.90;21.83;;;;;;;;;;774139;180;826793;-69
2023/12/14 04:46:13;;;;;;;77.80;19.00;;;;;;;;;;769267;179;919593;-62
2023/12/14 04:48:39;;;;;;;46.60;18.43;;;;;;;;;;772984;178;919825;-62
2023/12/14 04:51:05;;;;;;;72.83;34.77;;;;;;;;;;776415;180;879807;-70
2023/12/14 04:53:31;;;;;;;63.97;29.00;;;;;;;;;;773586;178;919326;-62
2023/12/14 04:55:56;;;;;;;41.50;20.23;;;;;;;;;;769898;180;918547;-62
2023/12/14 04:58:22;;;;;;;35.63;20.57;;;;;;;;;;777910;181;822112;-70
2023/12/14 05:00:48;;;;;;;44.47;19.93;;;;;;;;;;771131;179;919212;-62
2023/12/14 05:03:14;;;;;;;42.90;20.03;;;;;;;;;;769531;180;918663;-70
2023/12/14 05:05:40;;;;;;;45.93;20.60;;;;;;;;;;758590;179;898224;-69
2023/12/14 05:08:06;;;;;;;48.83;18.90;;;;;;;;;;777343;181;918896;-62
2023/12/14 05:10:32;;;;;;;47.53;18.83;;;;;;;;;;769231;179;918881;-62
2023/12/14 05:12:57;;;;;;;46.53;18.00;;;;;;;;;;772208;180;919244;-70
2023/12/14 05:15:23;;;;;;;40.87;20.40;;;;;;;;;;774751;178;922507;-62
2023/12/14 05:17:49;;;;;;;38.27;21.23;;;;;;;;;;774772;177;916946;-70
2023/12/14 05:20:15;;;;;;;42.47;19.55;;;;;;;;;;770576;180;922069;-70
2023/12/14 05:22:41;;;;;;;47.83;18.10;;;;;;;;;;777438;178;919322;-69
2023/12/14 05:25:07;;;;;;;45.10;18.50;;;;;;;;;;771380;178;914880;-61
2023/12/14 05:27:33;;;;;;;38.93;16.07;;;;;;;;;;772100;179;915344;-71
2023/12/14 05:29:58;;;;;;;36.47;17.50;;;;;;;;;;773425;177;912068;-69
2023/12/14 05:32:24;;;;;;;31.43;17.90;;;;;;;;;;779843;180;920880;-62
2023/12/14 05:34:50;;;;;;;34.00;19.00;;;;;;;;;;772271;177;1023996;-70
2023/12/14 05:37:16;;;;;;;34.63;17.60;;;;;;;;;;771959;178;915042;-70
2023/12/14 05:39:43;;;;;;;26.02;14.87;;;;;;;;;;774945;177;918145;-70
2023/12/14 05:42:08;;;;;;;26.20;14.30;;;;;;;;;;760347;180;917168;-62
2023/12/14 05:44:34;;;;;;;24.90;13.37;;;;;;;;;;774215;178;914642;-62
2023/12/14 05:47:00;;;;;;;28.50;15.73;;;;;;;;;;779540;180;811662;-62
2023/12/14 05:49:26;;;;;;;28.60;17.50;;;;;;;;;;776914;177;916792;-70
2023/12/14 05:51:51;;;;;;;36.60;14.80;;;;;;;;;;776149;177;827466;-70
2023/12/14 05:54:17;;;;;;;39.13;16.43;;;;;;;;;;778346;178;623398;-62
2023/12/14 05:56:43;;;;;;;54.93;18.37;;;;;;;;;;775713;177;636726;-62
2023/12/14 05:59:09;;;;;;;33.13;15.87;;;;;;;;;;771382;177;913024;-70
2023/12/14 06:01:35;;;;;;;52.53;16.13;;;;;;;;;;775905;179;808813;-70
2023/12/14 06:04:02;;;;;;;47.53;16.10;;;;;;;;;;777867;180;917622;-62
2023/12/14 06:06:27;;;;;;;32.40;16.40;;;;;;;;;;773311;180;855695;-62
2023/12/14 06:08:52;;;;;;;40.63;17.20;;;;;;;;;;775305;179;918770;-71
2023/12/14 06:11:19;;;;;;;33.50;15.10;;;;;;;;;;775334;180;918678;-62
2023/12/14 06:13:44;;;;;;;30.77;15.70;;;;;;;;;;773031;180;918144;-70
2023/12/14 06:16:12;;;;;;;28.07;15.27;;;;;;;;;;765857;180;1020754;-70
2023/12/14 06:18:36;;;;;;;29.67;16.10;;;;;;;;;;779273;180;827433;-62
2023/12/14 06:21:02;;;;;;;36.40;21.30;;;;;;;;;;769787;180;918053;-62
2023/12/14 06:23:27;;;;;;;31.73;16.40;;;;;;;;;;775657;177;816336;-70
2023/12/14 06:25:53;;;;;;;30.17;16.92;;;;;;;;;;773135;178;910323;-62
2023/12/14 06:28:19;;;;;;;35.53;18.70;;;;;;;;;;774700;180;868622;-62
2023/12/14 06:30:45;;;;;;;40.40;18.62;;;;;;;;;;762318;177;918236;-70
2023/12/14 06:33:11;;;;;;;37.30;20.07;;;;;;;;;;761425;181;921045;-69
2023/12/14 06:35:37;;;;;;;51.40;26.27;;;;;;;;;;775421;178;816172;-71
2023/12/14 06:38:03;;;;;;;46.57;24.23;;;;;;;;;;771312;178;917926;-62
2023/12/14 06:40:28;;;;;;;45.43;24.40;;;;;;;;;;776357;179;921690;-62
2023/12/14 06:42:54;;;;;;;40.13;22.27;;;;;;;;;;777279;180;919086;-70
2023/12/14 06:45:20;;;;;;;48.63;26.37;;;;;;;;;;767054;179;917260;-71
2023/12/14 06:47:47;;;;;;;47.03;27.60;;;;;;;;;;770278;180;916570;-70
2023/12/14 06:50:13;;;;;;;46.63;23.87;;;;;;;;;;780669;179;716941;-62
2023/12/14 06:52:38;;;;;;;40.10;23.73;;;;;;;;;;776113;181;919056;-62
2023/12/14 06:55:04;;;;;;;42.73;23.77;;;;;;;;;;777273;177;826582;-62
2023/12/14 06:57:30;;;;;;;42.78;24.80;;;;;;;;;;773770;177;919327;-62
2023/12/14 06:59:55;;;;;;;39.83;20.93;;;;;;;;;;775715;180;919783;-62
2023/12/14 07:02:21;;;;;;;29.90;19.30;;;;;;;;;;770374;179;919095;-62
2023/12/14 07:04:47;;;;;;;38.20;19.30;;;;;;;;;;756538;180;919047;-69
2023/12/14 07:07:13;;;;;;;33.23;20.37;;;;;;;;;;779378;180;918975;-70
2023/12/14 07:09:39;;;;;;;67.53;41.47;;;;;;;;;;774528;179;822403;-70
2023/12/14 07:12:05;;;;;;;45.40;26.80;;;;;;;;;;768243;180;816909;-70
2023/12/14 07:14:31;;;;;;;32.27;18.03;;;;;;;;;;780451;180;918161;-62
2023/12/14 07:16:57;;;;;;;26.33;17.40;;;;;;;;;;772987;177;921532;-71
2023/12/14 07:19:22;;;;;;;30.00;17.37;;;;;;;;;;773791;177;917774;-70
2023/12/14 07:21:48;;;;;;;42.67;22.00;;;;;;;;;;771236;180;919420;-62
2023/12/14 07:24:14;;;;;;;45.43;21.20;;;;;;;;;;760482;184;919815;-62
2023/12/14 07:26:40;;;;;;;39.40;20.20;;;;;;;;;;764147;180;917981;-70
2023/12/14 07:29:06;;;;;;;29.87;16.42;;;;;;;;;;768502;181;931600;-69
2023/12/14 07:31:33;;;;;;;32.60;20.17;;;;;;;;;;772538;180;920762;-70
2023/12/14 07:33:58;;;;;;;29.47;17.50;;;;;;;;;;771012;180;920806;-62
2023/12/14 07:36:23;;;;;;;38.50;22.27;;;;;;;;;;773763;180;848793;-69
2023/12/14 07:38:49;;;;;;;37.77;23.70;;;;;;;;;;779209;180;917162;-70
2023/12/14 07:41:15;;;;;;;40.97;25.63;;;;;;;;;;773493;181;893539;-70
2023/12/14 07:43:41;;;;;;;50.17;29.00;;;;;;;;;;773124;180;916920;-62
2023/12/14 07:46:07;;;;;;;51.50;28.87;;;;;;;;;;778874;178;920407;-68
2023/12/14 07:48:33;;;;;;;46.43;27.27;;;;;;;;;;775725;178;820108;-62
2023/12/14 07:50:59;;;;;;;46.47;25.87;;;;;;;;;;772018;180;919209;-62
2023/12/14 07:53:24;;;;;;;35.43;20.73;;;;;;;;;;774726;180;920814;-62
2023/12/14 07:55:50;;;;;;;37.73;20.87;;;;;;;;;;781042;178;921969;-70
2023/12/14 07:58:16;;;;;;;34.10;21.07;;;;;;;;;;777449;180;712813;-62
2023/12/14 08:00:42;;;;;;;41.13;22.27;;;;;;;;;;773490;180;896659;-62
2023/12/14 08:03:08;;;;;;;36.80;18.73;;;;;;;;;;774484;180;918027;-62
2023/12/14 08:05:34;;;;;;;36.10;19.70;;;;;;;;;;771341;180;816072;-71
2023/12/14 08:07:59;;;;;;;41.23;19.97;;;;;;;;;;767496;180;919118;-62
2023/12/14 08:10:25;;;;;;;37.43;18.87;;;;;;;;;;771726;180;919112;-62
2023/12/14 08:12:52;;;;;;;57.07;28.80;;;;;;;;;;773771;178;918745;-62
2023/12/14 08:15:17;;;;;;;43.67;20.47;;;;;;;;;;772005;179;920296;-62
2023/12/14 08:17:43;;;;;;;36.70;20.10;;;;;;;;;;777897;178;628993;-62
2023/12/14 08:20:11;;;;;;;37.28;18.30;;;;;;;;;;777265;180;810724;-62
2023/12/14 08:22:35;;;;;;;35.83;19.23;;;;;;;;;;778514;177;628993;-70
2023/12/14 08:25:01;;;;;;;39.80;19.60;;;;;;;;;;775731;180;813883;-62
2023/12/14 08:27:27;;;;;;;32.60;18.03;;;;;;;;;;780189;181;624793;-69
2023/12/14 08:29:52;;;;;;;40.93;19.47;;;;;;;;;;778039;180;916716;-62
2023/12/14 08:32:19;;;;;;;45.57;22.70;;;;;;;;;;771262;178;917724;-70
2023/12/14 08:34:44;;;;;;;34.73;20.57;;;;;;;;;;779786;179;626268;-62
2023/12/14 08:37:10;;;;;;;50.00;23.43;;;;;;;;;;778487;178;628189;-70
2023/12/14 08:39:36;;;;;;;39.20;20.10;;;;;;;;;;776567;181;619017;-71
2023/12/14 08:42:02;;;;;;;53.55;23.38;;;;;;;;;;767191;181;1121202;-69
2023/12/14 08:44:28;;;;;;;38.30;21.25;;;;;;;;;;761740;182;918061;-70
2023/12/14 08:46:54;;;;;;;47.00;23.87;;;;;;;;;;769374;180;919024;-70
2023/12/14 08:49:20;;;;;;;45.33;21.03;;;;;;;;;;768948;178;922314;-62
2023/12/14 08:51:46;;;;;;;40.33;19.27;;;;;;;;;;778004;180;926043;-70
2023/12/14 08:54:11;;;;;;;37.40;21.23;;;;;;;;;;771465;178;919044;-62
2023/12/14 08:56:37;;;;;;;38.10;21.02;;;;;;;;;;774240;180;915603;-63
2023/12/14 08:59:03;;;;;;;49.90;26.00;;;;;;;;;;777335;180;938837;-63
2023/12/14 09:01:29;;;;;;;48.40;24.30;;;;;;;;;;778915;179;713574;-62
2023/12/14 09:03:55;;;;;;;43.40;21.37;;;;;;;;;;773836;180;918946;-62
2023/12/14 09:06:21;;;;;;;50.90;21.67;;;;;;;;;;771814;181;923642;-62
2023/12/14 09:08:46;;;;;;;45.10;22.27;;;;;;;;;;772917;180;918401;-70
2023/12/14 09:11:12;;;;;;;43.37;22.00;;;;;;;;;;773751;181;918588;-62
2023/12/14 09:13:38;;;;;;;44.90;22.77;;;;;;;;;;774180;177;917459;-63
2023/12/14 09:16:04;;;;;;;48.17;23.30;;;;;;;;;;775115;181;944719;-70
2023/12/14 09:18:30;;;;;;;40.07;21.27;;;;;;;;;;773796;180;814314;-62
2023/12/14 09:20:56;;;;;;;48.28;18.87;;;;;;;;;;771822;180;892882;-62
2023/12/14 09:23:22;;;;;;;45.00;20.93;;;;;;;;;;781570;180;807135;-65
2023/12/14 09:25:48;;;;;;;35.07;17.30;;;;;;;;;;775006;178;912214;-70
2023/12/14 09:28:13;;;;;;;46.37;19.90;;;;;;;;;;771720;180;919647;-62
2023/12/14 09:30:39;;;;;;;38.27;17.73;;;;;;;;;;776115;180;933043;-70
2023/12/14 09:33:08;;;;;;;50.00;19.33;;;;;;;;;;767237;180;916489;-70
2023/12/14 09:35:31;;;;;;;42.63;18.10;;;;;;;;;;769276;180;918597;-70
2023/12/14 09:37:57;;;;;;;43.40;20.57;;;;;;;;;;762328;179;923486;-63
2023/12/14 09:40:23;;;;;;;46.83;23.30;;;;;;;;;;771679;180;817727;-70
2023/12/14 09:42:48;;;;;;;50.00;22.83;;;;;;;;;;766919;180;922467;-62
2023/12/14 09:45:14;;;;;;;47.77;23.30;;;;;;;;;;772564;180;914041;-69
2023/12/14 09:47:40;;;;;;;55.47;26.17;;;;;;;;;;776280;180;918361;-62
2023/12/14 09:50:07;;;;;;;55.63;26.30;;;;;;;;;;770898;180;920695;-69
2023/12/14 09:52:33;;;;;;;53.50;27.07;;;;;;;;;;772122;178;922693;-62
2023/12/14 09:54:58;;;;;;;47.13;26.73;;;;;;;;;;778838;180;714085;-62
2023/12/14 09:57:25;;;;;;;44.03;21.83;;;;;;;;;;775701;178;814065;-62
2023/12/14 09:59:51;;;;;;;37.80;22.23;;;;;;;;;;775767;180;920881;-62
2023/12/14 10:02:17;;;;;;;44.92;23.33;;;;;;;;;;777010;177;816883;-62
2023/12/14 10:04:43;;;;;;;57.57;26.37;;;;;;;;;;770644;179;911232;-62
2023/12/14 10:07:09;;;;;;;50.43;24.53;;;;;;;;;;778275;179;624936;-70
2023/12/14 10:09:35;;;;;;;46.60;23.23;;;;;;;;;;774990;180;631156;-69
2023/12/14 10:12:01;;;;;;;50.13;24.97;;;;;;;;;;780647;179;617653;-70
2023/12/14 10:14:27;;;;;;;48.30;27.27;;;;;;;;;;775937;177;913807;-71
2023/12/14 10:16:53;;;;;;;70.07;29.20;;;;;;;;;;774636;181;903468;-70
2023/12/14 10:19:19;;;;;;;64.40;31.50;;;;;;;;;;779231;181;919430;-62
2023/12/14 10:21:47;;;;;;;55.47;26.73;;;;;;;;;;773490;179;919887;-62
2023/12/14 10:24:14;;;;;;;60.23;31.70;;;;;;;;;;771837;180;1023366;-70
2023/12/14 10:26:39;;;;;;;70.60;36.90;;;;;;;;;;772050;180;919790;-62
2023/12/14 10:29:05;;;;;;;57.53;27.47;;;;;;;;;;765819;181;818119;-70
2023/12/14 10:31:31;;;;;;;64.97;32.10;;;;;;;;;;767367;181;815471;-62
2023/12/14 10:33:57;;;;;;;62.33;31.10;;;;;;;;;;772447;178;913468;-63
2023/12/14 10:36:24;;;;;;;86.57;44.80;;;;;;;;;;762400;181;927812;-70
2023/12/14 10:38:49;;;;;;;61.80;34.07;;;;;;;;;;770023;180;918924;-70
2023/12/14 10:41:14;;;;;;;146.37;98.30;;;;;;;;;;772551;177;918746;-62
2023/12/14 10:43:40;;;;;;;164.93;111.30;;;;;;;;;;777280;180;916014;-63
2023/12/14 10:46:07;;;;;;;57.80;33.83;;;;;;;;;;774005;178;911721;-66
2023/12/14 10:48:32;;;;;;;64.10;39.13;;;;;;;;;;773624;178;913028;-61
2023/12/14 10:50:58;;;;;;;56.00;28.03;;;;;;;;;;778921;178;916253;-62
2023/12/14 10:53:23;;;;;;;62.53;26.70;;;;;;;;;;776376;180;912214;-70
2023/12/14 10:55:51;;;;;;;59.20;25.00;;;;;;;;;;774013;180;817352;-62
2023/12/14 10:58:15;;;;;;;38.43;22.70;;;;;;;;;;772080;180;918818;-69
2023/12/14 11:00:41;;;;;;;59.07;28.13;;;;;;;;;;778561;180;918730;-62
2023/12/14 11:03:07;;;;;;;54.37;26.47;;;;;;;;;;771190;179;919143;-71
2023/12/14 11:05:33;;;;;;;43.27;23.13;;;;;;;;;;772311;180;919026;-70
2023/12/14 11:08:01;;;;;;;50.63;22.13;;;;;;;;;;776823;181;712325;-69
2023/12/14 11:10:26;;;;;;;52.40;26.13;;;;;;;;;;774847;178;919211;-70
2023/12/14 11:12:52;;;;;;;53.57;27.53;;;;;;;;;;773148;178;898988;-62
2023/12/14 11:15:18;;;;;;;56.23;24.60;;;;;;;;;;776816;181;814824;-70
2023/12/14 11:17:44;;;;;;;55.20;24.53;;;;;;;;;;770535;180;918097;-63
2023/12/14 11:20:15;;;;;;;60.13;26.43;;;;;;;;;;774929;180;817142;-62
2023/12/14 11:22:41;;;;;;;54.15;29.80;;;;;;;;;;771687;179;1016975;-69
2023/12/14 11:25:07;;;;;;;52.47;29.03;;;;;;;;;;779401;180;919153;-62
2023/12/14 11:27:33;;;;;;;48.57;24.67;;;;;;;;;;771896;178;918026;-70
2023/12/14 11:29:59;;;;;;;63.90;31.27;;;;;;;;;;773771;179;1022729;-62
2023/12/14 11:32:24;;;;;;;88.77;40.70;;;;;;;;;;778255;177;895257;-70
2023/12/14 11:34:50;;;;;;;83.30;44.97;;;;;;;;;;770970;177;919212;-70
2023/12/14 11:37:16;;;;;;;105.43;47.63;;;;;;;;;;773218;181;816709;-69
2023/12/14 11:39:43;;;;;;;64.28;32.67;;;;;;;;;;773142;179;925243;-62
2023/12/14 11:42:10;;;;;;;343.53;146.17;;;;;;;;;;774417;180;816323;-62
2023/12/14 11:44:35;;;;;;;188.63;91.87;;;;;;;;;;771028;180;919459;-62
2023/12/14 11:47:00;;;;;;;99.03;59.93;;;;;;;;;;771417;180;920272;-69
2023/12/14 11:49:27;;;;;;;120.90;54.23;;;;;;;;;;778829;180;918785;-62
2023/12/14 11:51:53;;;;;;;65.13;36.03;;;;;;;;;;771795;180;908984;-62
2023/12/14 11:54:18;;;;;;;91.97;44.75;;;;;;;;;;773028;180;912708;-61
2023/12/14 11:56:46;;;;;;;152.97;71.57;;;;;;;;;;779130;179;916513;-62
2023/12/14 11:59:11;;;;;;;105.43;52.73;;;;;;;;;;778364;177;633835;-63
2023/12/14 12:01:37;;;;;;;69.33;38.37;;;;;;;;;;768185;180;922045;-71
2023/12/14 12:04:11;;;;;;;58.90;27.83;;;;;;;;;;771817;179;916534;-70
2023/12/14 12:06:37;;;;;;;68.87;30.60;;;;;;;;;;763135;183;816236;-68
2023/12/14 12:09:08;;;;;;;126.27;50.93;;;;;;;;;;759714;181;943159;-62
2023/12/14 12:11:28;;;;;;;97.03;49.13;;;;;;;;;;772482;181;922115;-62
2023/12/14 12:13:54;;;;;;;76.13;37.13;;;;;;;;;;779051;180;919622;-62
2023/12/14 12:16:21;;;;;;;71.13;32.63;;;;;;;;;;774483;180;919746;-70
2023/12/14 12:18:46;;;;;;;79.47;37.60;;;;;;;;;;772244;180;920166;-62
2023/12/14 12:21:12;;;;;;;63.93;27.50;;;;;;;;;;764549;183;817636;-62
2023/12/14 12:23:38;;;;;;;81.30;35.80;;;;;;;;;;766750;181;919196;-62
2023/12/14 12:26:04;;;;;;;101.90;40.83;;;;;;;;;;772606;179;919410;-62
2023/12/14 12:28:29;;;;;;;77.05;34.15;;;;;;;;;;770611;180;868306;-62
2023/12/14 12:30:55;;;;;;;86.33;38.30;;;;;;;;;;778139;180;814485;-62
2023/12/14 12:33:21;;;;;;;109.53;51.30;;;;;;;;;;773333;180;636868;-62
2023/12/14 12:35:47;;;;;;;139.43;58.23;;;;;;;;;;776321;179;809822;-70
2023/12/14 12:38:14;;;;;;;105.40;38.40;;;;;;;;;;781620;177;911329;-71
2023/12/14 12:40:39;;;;;;;73.97;33.90;;;;;;;;;;777461;177;813396;-62
2023/12/14 12:43:05;;;;;;;102.23;50.57;;;;;;;;;;777902;177;819801;-62
2023/12/14 12:45:32;;;;;;;70.23;34.83;;;;;;;;;;778288;177;915929;-71
2023/12/14 12:47:56;;;;;;;65.27;30.17;;;;;;;;;;768984;181;915165;-69
2023/12/14 12:50:22;;;;;;;61.53;31.10;;;;;;;;;;776922;180;633638;-62
2023/12/14 12:52:49;;;;;;;58.33;27.07;;;;;;;;;;771185;180;927883;-69
2023/12/14 12:55:14;;;;;;;55.73;25.60;;;;;;;;;;774935;181;918977;-62
2023/12/14 12:57:41;;;;;;;57.87;28.83;;;;;;;;;;772562;180;917671;-62
2023/12/14 13:00:11;;;;;;;53.30;24.60;;;;;;;;;;772273;180;925638;-71
2023/12/14 13:02:32;;;;;;;57.77;30.10;;;;;;;;;;776983;180;921934;-70
2023/12/14 13:04:58;;;;;;;101.87;46.47;;;;;;;;;;770903;177;915529;-70
2023/12/14 13:07:24;;;;;;;85.90;43.33;;;;;;;;;;773573;180;916768;-70
2023/12/14 13:09:49;;;;;;;133.77;72.03;;;;;;;;;;779649;180;817871;-62
2023/12/14 13:12:15;;;;;;;126.37;65.97;;;;;;;;;;775589;180;909239;-62
2023/12/14 13:14:41;;;;;;;85.20;46.83;;;;;;;;;;768933;180;1125415;-70
2023/12/14 13:17:07;;;;;;;62.63;33.10;;;;;;;;;;770423;180;918361;-70
2023/12/14 13:19:33;;;;;;;57.53;31.23;;;;;;;;;;773440;178;919595;-61
2023/12/14 13:21:59;;;;;;;45.70;25.10;;;;;;;;;;773639;178;860406;-70
2023/12/14 13:24:24;;;;;;;53.97;25.63;;;;;;;;;;774003;177;916596;-62
2023/12/14 13:26:50;;;;;;;55.80;26.13;;;;;;;;;;779838;178;941596;-62
2023/12/14 13:29:16;;;;;;;57.53;25.40;;;;;;;;;;773005;180;938350;-70
2023/12/14 13:31:42;;;;;;;49.17;24.30;;;;;;;;;;770029;180;919988;-62
2023/12/14 13:34:08;;;;;;;42.50;23.43;;;;;;;;;;777048;180;816279;-61
2023/12/14 13:36:34;;;;;;;52.20;25.17;;;;;;;;;;762314;180;918506;-62
2023/12/14 13:39:01;;;;;;;44.33;21.60;;;;;;;;;;764461;181;919868;-70
2023/12/14 13:41:26;;;;;;;44.10;22.17;;;;;;;;;;776743;180;816703;-69
2023/12/14 13:43:52;;;;;;;42.17;24.13;;;;;;;;;;774735;180;706640;-62
2023/12/14 13:46:17;;;;;;;44.47;21.97;;;;;;;;;;772214;179;917465;-62
2023/12/14 13:48:43;;;;;;;54.47;26.00;;;;;;;;;;771234;177;977536;-62
2023/12/14 13:51:09;;;;;;;43.77;23.10;;;;;;;;;;779376;181;918459;-61
2023/12/14 13:53:35;;;;;;;44.33;22.60;;;;;;;;;;773007;180;915746;-62
2023/12/14 13:56:01;;;;;;;45.70;22.07;;;;;;;;;;771994;180;918947;-62